Time;durP1;ratioP1;P1;durP2;ratioP2;P2;SDS_P1;SDS_P2;PMS_P1;PMS_P2;Temp;Humidity;BMP_temperature;BMP_pressure;BME280_temperature;BME280_humidity;BME280_pressure;Samples;Min_cycle;Max_cycle;Signal;HPM_P1;HPM_P2
2021/11/02 02:57:02;;;;;;;;;;;;;;;;;;;;;
2021/11/02 02:59:36;;;;;;;;;;;;;;;;;;;;;
2021/11/02 03:02:00;;;;;;;122.50;51.08;;;;;;;7.46;86.97;96714.95;1578519;89;21032;-82
2021/11/02 03:04:44;;;;;;;;;;;;;;;;;;;;;
2021/11/02 03:07:12;;;;;;;;;;;;;;;;;;;;;
2021/11/02 03:09:46;;;;;;;;;;;;;;;;;;;;;
2021/11/02 03:12:12;;;;;;;46.75;26.07;;;;;;;7.37;83.15;96718.04;1682639;83;20919;-82
2021/11/02 03:15:07;;;;;;;35.25;19.17;;;;;;;7.38;83.07;96713.70;1741043;81;21020;-82
2021/11/02 03:17:28;;;;;;;32.23;19.02;;;;;;;7.41;83.30;96718.50;1743261;81;20933;-84
2021/11/02 03:45:14;;;;;;;26.07;17.02;;;;;;;7.30;86.15;96723.78;1741152;81;20974;-82
2021/11/02 03:56:11;;;;;;;;;;;;;;;;;;;;;
2021/11/02 03:58:52;;;;;;;24.90;15.83;;;;;;;7.37;90.38;96704.02;1672666;83;21081;-82
2021/11/02 08:50:24;;;;;;;;;;;;;;;;;;;;;
2021/11/02 08:55:57;;;;;;;;;;;;;;;;;;;;;
2021/11/02 09:00:57;;;;;;;;;;;;;;;;;;;;;
2021/11/02 09:17:02;;;;;;;71.75;46.02;;;;;;;8.91;90.52;96672.02;1764290;79;21631;-82
2021/11/02 09:22:24;;;;;;;;;;;;;;;;;;;;;
2021/11/02 10:05:33;;;;;;;;;;;;;;;;;;;;;
2021/11/02 10:08:32;;;;;;;;;;;;;;;;;;;;;
2021/11/02 10:11:33;;;;;;;;;;;;;;;;;;;;;
2021/11/02 10:14:55;;;;;;;;;;;;;;;;;;;;;
2021/11/02 11:10:20;;;;;;;;;;;;;;;;;;;;;
2021/11/02 11:40:47;;;;;;;;;;;;;;;;;;;;;
2021/11/02 11:43:43;;;;;;;;;;;;;;;;;;;;;
2021/11/02 11:51:41;;;;;;;;;;;;;;;;;;;;;
2021/11/02 11:54:12;;;;;;;;;;;;;;;;;;;;;
2021/11/02 13:19:14;;;;;;;49.48;32.10;;;;;;;10.00;89.95;96614.63;1746168;79;20936;-91
2021/11/02 13:21:39;;;;;;;52.43;33.92;;;;;;;10.06;89.62;96607.43;1744763;80;21445;-91
2021/11/02 13:24:22;;;;;;;50.90;32.93;;;;;;;10.07;90.09;96604.97;1746639;80;20829;-92
2021/11/02 13:26:50;;;;;;;54.23;35.30;;;;;;;10.12;89.67;96611.61;1742263;80;21477;-80
2021/11/02 13:29:29;;;;;;;51.98;34.48;;;;;;;10.18;89.78;96613.09;1746766;80;21409;-91
2021/11/02 13:35:30;;;;;;;;;;;;;;;;;;;;;
2021/11/02 15:25:30;;;;;;;;;;;;;;;;;;;;;
2021/11/02 15:28:08;;;;;;;127.72;75.87;;;;;;;9.32;91.39;96641.69;1520807;93;21054;-82
2021/11/02 15:30:51;;;;;;;;;;;;;;;;;;;;;
2021/11/02 15:46:33;;;;;;;;;;;;;;;;;;;;;
2021/11/02 15:49:04;;;;;;;;;;;;;;;;;;;;;
2021/11/02 15:51:28;;;;;;;58.55;34.95;;;;;;;8.53;93.13;96656.55;1534515;91;21532;-81
2021/11/02 15:53:55;;;;;;;102.00;58.23;;;;;;;8.41;93.95;96653.80;1513089;93;21110;-84
2021/11/02 15:56:26;;;;;;;100.97;59.10;;;;;;;8.32;94.90;96658.27;1529623;88;20965;-80
2021/11/02 15:59:01;;;;;;;123.02;65.37;;;;;;;8.22;95.60;96659.80;1594600;88;21347;-84
2021/11/02 16:01:35;;;;;;;74.90;42.88;;;;;;;8.27;94.90;96668.34;1596873;89;21127;-85
2021/11/02 16:04:15;;;;;;;82.57;51.63;;;;;;;8.23;95.46;96664.09;1686415;82;20994;-80
2021/11/02 16:07:08;;;;;;;47.55;33.10;;;;;;;8.19;95.57;96662.52;1692162;82;21095;-85
2021/11/02 16:09:49;;;;;;;62.83;36.48;;;;;;;8.23;95.13;96667.34;1689422;83;21265;-81
2021/11/02 16:12:18;;;;;;;58.92;40.78;;;;;;;8.16;95.86;96667.17;1699604;83;21028;-80
2021/11/02 16:15:13;;;;;;;59.42;38.85;;;;;;;8.21;95.68;96673.05;1751680;80;21449;-86
2021/11/02 16:17:49;;;;;;;131.85;70.08;;;;;;;8.16;95.70;96671.22;1752144;79;21032;-80
2021/11/02 16:20:30;;;;;;;84.28;53.42;;;;;;;8.16;96.05;96670.42;1752012;80;21505;-80
2021/11/02 16:23:05;;;;;;;100.40;55.98;;;;;;;8.15;96.42;96675.58;1746646;80;21168;-86
2021/11/02 16:25:37;;;;;;;40.08;28.35;;;;;;;8.20;95.99;96680.34;1751054;80;21024;-85
2021/11/02 16:28:08;;;;;;;49.15;33.23;;;;;;;8.17;96.14;96682.27;1753434;79;20992;-80
2021/11/02 16:30:50;;;;;;;47.03;30.37;;;;;;;8.18;96.47;96685.77;1753166;80;21099;-80
2021/11/02 16:33:17;;;;;;;50.40;36.75;;;;;;;8.15;96.28;96680.42;1753128;79;21020;-83
2021/11/02 16:35:47;;;;;;;46.60;35.65;;;;;;;8.17;96.12;96684.16;1754071;80;21200;-85
2021/11/02 16:38:24;;;;;;;27.73;19.85;;;;;;;8.11;96.77;96683.44;1753647;79;21094;-84
2021/11/02 16:41:09;;;;;;;45.52;30.70;;;;;;;8.11;96.90;96685.34;1755166;80;21389;-80
2021/11/02 16:43:55;;;;;;;34.58;24.65;;;;;;;8.07;97.13;96689.19;1746208;80;20929;-80
2021/11/02 16:46:31;;;;;;;34.88;24.98;;;;;;;8.02;97.39;96689.81;1759240;80;21023;-80
2021/11/02 16:49:11;;;;;;;33.40;23.70;;;;;;;8.02;97.57;96694.66;1752656;80;21790;-85
2021/11/02 16:52:04;;;;;;;34.20;24.75;;;;;;;8.06;97.17;96693.54;1748595;80;21125;-84
2021/11/02 16:54:43;;;;;;;32.05;20.88;;;;;;;8.01;97.41;96699.80;1720998;80;21102;-81
2021/11/02 16:57:23;;;;;;;31.90;22.85;;;;;;;8.00;97.34;96698.75;1725451;80;21463;-84
2021/11/02 17:00:09;;;;;;;35.08;24.70;;;;;;;7.99;97.13;96706.59;1762228;80;21085;-80
2021/11/02 17:02:40;;;;;;;35.80;23.52;;;;;;;8.03;96.94;96711.64;1758459;79;21453;-81
2021/11/02 17:05:25;;;;;;;40.88;28.95;;;;;;;8.04;96.91;96716.77;1762835;80;21075;-80
2021/11/02 17:08:12;;;;;;;32.58;21.33;;;;;;;8.03;96.59;96717.87;1752894;80;22403;-83
2021/11/02 17:10:50;;;;;;;31.37;21.42;;;;;;;7.99;96.29;96718.73;1747458;80;20945;-84
2021/11/02 17:13:26;;;;;;;53.33;31.37;;;;;;;8.00;96.41;96721.13;1761929;80;21417;-80
2021/11/02 17:15:55;;;;;;;48.98;31.05;;;;;;;8.01;96.00;96723.28;1752160;80;21833;-84
2021/11/02 17:18:52;;;;;;;36.42;25.15;;;;;;;8.04;95.79;96727.56;1752699;80;21148;-84
2021/11/02 17:21:16;;;;;;;35.75;25.40;;;;;;;8.05;95.80;96727.01;1729896;80;21038;-80
2021/11/02 17:23:43;;;;;;;28.05;21.05;;;;;;;8.03;95.68;96729.18;1757307;80;21074;-83
2021/11/02 17:26:12;;;;;;;33.02;26.55;;;;;;;8.07;95.27;96732.36;1751579;80;21091;-80
2021/11/02 17:28:45;;;;;;;32.13;21.62;;;;;;;8.07;95.09;96738.30;1744924;80;21027;-84
2021/11/02 17:31:15;;;;;;;33.78;22.40;;;;;;;8.05;95.25;96743.20;1743825;80;20941;-80
2021/11/02 17:33:44;;;;;;;25.82;17.42;;;;;;;8.05;94.87;96749.39;1746168;80;20953;-81
2021/11/02 17:36:17;;;;;;;30.45;22.27;;;;;;;8.02;95.06;96747.27;1747020;80;21501;-80
2021/11/02 17:38:44;;;;;;;29.40;21.45;;;;;;;8.00;94.81;96756.20;1754936;79;21106;-84
2021/11/02 17:41:14;;;;;;;33.10;24.65;;;;;;;8.01;94.59;96755.11;1756109;80;21097;-81
2021/11/02 17:43:45;;;;;;;32.98;24.27;;;;;;;8.02;94.31;96757.25;1729656;80;21038;-85
2021/11/02 17:46:12;;;;;;;26.68;19.80;;;;;;;8.01;94.54;96754.30;1686430;82;20937;-81
2021/11/02 17:48:50;;;;;;;;;;;;;;;;;;;;;
2021/11/02 17:51:10;;;;;;;32.53;23.35;;;;;;;7.95;94.92;96760.86;1715024;82;21096;-85
2021/11/02 17:53:38;;;;;;;35.65;26.82;;;;;;;7.97;94.30;96761.39;1752152;80;21163;-81
2021/11/02 17:56:07;;;;;;;;;;;;;;;7.98;94.60;96763.00;1759097;80;21528;-80
2021/11/02 17:58:36;;;;;;;42.73;29.45;;;;;;;7.96;94.69;96765.99;1750228;80;20141;-80
2021/11/02 18:01:03;;;;;;;26.48;19.55;;;;;;;7.92;94.86;96763.61;1756476;80;21024;-80
2021/11/02 18:03:38;;;;;;;29.18;19.40;;;;;;;7.82;94.63;96760.52;1720691;80;21540;-81
2021/11/02 18:06:08;;;;;;;29.48;18.92;;;;;;;7.81;94.50;96763.52;1754301;80;21024;-84
2021/11/02 18:08:38;;;;;;;34.38;21.33;;;;;;;7.81;94.05;96766.20;1759386;80;21016;-85
2021/11/02 18:11:03;;;;;;;32.78;19.52;;;;;;;7.70;94.27;96770.95;1752246;80;20977;-85
2021/11/02 18:13:30;;;;;;;35.52;19.05;;;;;;;7.62;94.22;96776.45;1751089;80;21007;-81
2021/11/02 18:15:57;;;;;;;35.08;20.68;;;;;;;7.59;94.51;96775.66;1750068;80;20904;-81
2021/11/02 18:18:23;;;;;;;37.63;22.93;;;;;;;7.61;94.25;96774.05;1752099;79;21173;-80
2021/11/02 18:20:57;;;;;;;33.63;20.48;;;;;;;7.57;94.50;96777.85;1700533;80;21062;-84
2021/11/02 18:23:20;;;;;;;31.93;18.20;;;;;;;7.57;94.38;96779.20;1715553;82;21044;-80
2021/11/02 18:25:50;;;;;;;22.75;15.35;;;;;;;7.64;93.92;96781.00;1700558;81;25260;-84
2021/11/02 18:28:17;;;;;;;;;;;;;;;7.68;93.65;96777.16;1729934;81;20980;-81
2021/11/02 18:31:02;;;;;;;;;;;;;;;;;;;;;
2021/11/02 18:33:25;;;;;;;33.78;23.87;;;;;;;7.65;94.30;96783.14;1654097;84;20988;-84
2021/11/02 18:36:05;;;;;;;;;;;;;;;;;;;;;
2021/11/02 18:38:29;;;;;;;31.27;21.80;;;;;;;7.55;94.30;96776.00;1695130;81;21504;-81
2021/11/02 18:41:00;;;;;;;29.15;20.75;;;;;;;7.51;94.45;96780.89;1626336;85;20991;-81
2021/11/02 18:43:31;;;;;;;29.12;19.65;;;;;;;7.49;94.07;96785.23;1638187;86;20939;-83
2021/11/02 18:45:59;;;;;;;28.00;17.60;;;;;;;7.51;93.93;96788.44;1639509;85;21556;-84
2021/11/02 18:48:38;;;;;;;;;;;;;;;;;;;;;
2021/11/02 18:51:12;;;;;;;;;;;;;;;;;;;;;
2021/11/02 18:53:28;;;;;;;85.60;46.33;;;;;;;7.60;92.99;96801.52;1628617;84;21136;-83
2021/11/02 18:55:55;;;;;;;61.63;43.65;;;;;;;7.59;92.87;96802.62;1608852;85;21212;-84
2021/11/02 18:58:23;;;;;;;76.45;50.92;;;;;;;7.61;92.52;96805.05;1638736;84;20936;-81
2021/11/02 19:00:53;;;;;;;63.80;45.12;;;;;;;7.57;92.40;96802.66;1633988;86;21069;-83
2021/11/02 19:03:19;;;;;;;70.40;45.40;;;;;;;7.49;92.71;96796.02;1637617;85;21284;-83
2021/11/02 19:05:48;;;;;;;85.28;50.45;;;;;;;7.48;92.62;96805.20;1644630;86;21078;-83
2021/11/02 19:08:22;;;;;;;93.17;54.70;;;;;;;7.43;92.49;96805.25;1635793;85;21120;-83
2021/11/02 19:10:46;;;;;;;105.70;60.78;;;;;;;7.44;92.61;96812.82;1641379;85;21083;-81
2021/11/02 19:13:18;;;;;;;108.47;57.45;;;;;;;7.41;94.53;96808.78;1643623;85;21142;-84
2021/11/02 19:15:45;;;;;;;111.25;58.58;;;;;;;7.38;94.68;96809.92;1634831;85;20996;-81
2021/11/02 19:18:14;;;;;;;124.85;69.95;;;;;;;7.35;93.33;96816.70;1664295;82;21071;-81
2021/11/02 19:20:43;;;;;;;118.77;68.47;;;;;;;7.32;95.05;96820.75;1688161;83;20957;-81
2021/11/02 19:23:19;;;;;;;;;;;;;;;;;;;;;
2021/11/02 19:25:48;;;;;;;;;;;;;;;;;;;;;
2021/11/02 19:28:14;;;;;;;62.43;35.08;;;;;;;7.34;93.73;96823.95;1651167;84;21281;-84
2021/11/02 19:30:40;;;;;;;59.48;35.05;;;;;;;7.40;93.60;96833.34;1698061;83;21084;-81
2021/11/02 19:33:18;;;;;;;;;;;;;;;;;;;;;
2021/11/02 19:35:40;;;;;;;43.28;29.30;;;;;;;7.41;93.08;96834.94;1736271;80;21056;-85
2021/11/02 19:38:08;;;;;;;48.08;30.60;;;;;;;7.38;93.03;96838.22;1766698;80;20922;-81
2021/11/02 19:40:38;;;;;;;57.93;39.08;;;;;;;7.41;92.97;96838.98;1760070;80;20965;-84
2021/11/02 19:43:16;;;;;;;;;;;;;;;;;;;;;
2021/11/02 19:45:40;;;;;;;47.47;34.43;;;;;;;7.40;92.94;96842.77;1738409;80;21072;-85
2021/11/02 19:48:14;;;;;;;37.40;27.07;;;;;;;7.42;92.88;96845.42;1695825;80;21517;-81
2021/11/02 19:50:47;;;;;;;41.55;29.52;;;;;;;7.43;92.80;96839.48;1653699;85;21406;-84
2021/11/02 19:53:34;;;;;;;;;;;;;;;;;;;;;
2021/11/02 19:56:03;;;;;;;;;;;;;;;;;;;;;
2021/11/02 19:58:38;;;;;;;33.05;20.62;;;;;;;7.48;92.53;96851.56;1657571;84;20932;-81
2021/11/02 20:03:49;;;;;;;;;;;;;;;;;;;;;
2021/11/02 20:06:27;;;;;;;;;;;;;;;;;;;;;
2021/11/02 20:09:01;;;;;;;;;;;;;;;;;;;;;
2021/11/02 20:11:40;;;;;;;33.73;22.07;;;;;;;7.47;92.18;96874.23;1358900;98;21203;-84
2021/11/02 20:14:24;;;;;;;40.48;28.30;;;;;;;7.43;92.10;96878.02;1442081;96;21410;-83
2021/11/02 20:16:54;;;;;;;;;;;;;;;;;;;;;
2021/11/02 20:19:33;;;;;;;;;;;;;;;;;;;;;
2021/11/02 20:22:02;;;;;;;;;;;;;;;;;;;;;
2021/11/02 20:24:40;;;;;;;28.95;18.80;;;;;;;7.28;92.03;96897.88;1327300;104;21319;-84
2021/11/02 20:27:12;;;;;;;38.83;24.87;;;;;;;7.26;91.97;96892.49;1359661;101;21047;-81
2021/11/02 20:29:53;;;;;;;;;;;;;;;;;;;;;
2021/11/02 20:32:28;;;;;;;;;;;;;;;;;;;;;
2021/11/02 20:35:04;;;;;;;;;;;;;;;;;;;;;
2021/11/02 20:43:13;;;;;;;;;;;;;;;;;;;;;
2021/11/02 20:54:44;;;;;;;;;;;;;;;;;;;;;
2021/11/02 20:57:32;;;;;;;;;;;;;;;;;;;;;
2021/11/02 20:59:57;;;;;;;;;;;;;;;;;;;;;
